sensor_id;sensor_type;location;lat;lon;timestamp;P1;durP1;ratioP1;P2;durP2;ratioP2
20653;SDS011;21083;50.898;4.902;2023-02-13T00:00:29;89.38;;;33.22;;
20653;SDS011;21083;50.898;4.902;2023-02-13T00:02:58;83.18;;;33.83;;
20653;SDS011;21083;50.898;4.902;2023-02-13T00:05:25;84.30;;;31.40;;
20653;SDS011;21083;50.898;4.902;2023-02-13T00:07:52;84.88;;;33.22;;
20653;SDS011;21083;50.898;4.902;2023-02-13T00:10:19;73.57;;;30.70;;
20653;SDS011;21083;50.898;4.902;2023-02-13T00:12:46;86.45;;;33.70;;
20653;SDS011;21083;50.898;4.902;2023-02-13T00:15:13;81.38;;;31.83;;
20653;SDS011;21083;50.898;4.902;2023-02-13T00:17:40;77.32;;;30.98;;
20653;SDS011;21083;50.898;4.902;2023-02-13T00:20:10;84.85;;;31.90;;
20653;SDS011;21083;50.898;4.902;2023-02-13T00:22:37;80.82;;;32.65;;
20653;SDS011;21083;50.898;4.902;2023-02-13T00:25:05;90.45;;;36.85;;
20653;SDS011;21083;50.898;4.902;2023-02-13T00:27:32;91.93;;;33.42;;
20653;SDS011;21083;50.898;4.902;2023-02-13T00:29:59;84.40;;;33.20;;
20653;SDS011;21083;50.898;4.902;2023-02-13T00:32:26;82.70;;;32.03;;
20653;SDS011;21083;50.898;4.902;2023-02-13T00:34:53;81.45;;;33.17;;
20653;SDS011;21083;50.898;4.902;2023-02-13T00:37:22;88.45;;;33.15;;
20653;SDS011;21083;50.898;4.902;2023-02-13T00:39:49;77.22;;;32.55;;
20653;SDS011;21083;50.898;4.902;2023-02-13T00:42:16;87.53;;;31.27;;
20653;SDS011;21083;50.898;4.902;2023-02-13T00:44:43;87.10;;;33.20;;
20653;SDS011;21083;50.898;4.902;2023-02-13T00:47:10;94.40;;;33.17;;
20653;SDS011;21083;50.898;4.902;2023-02-13T00:49:38;86.90;;;32.70;;
20653;SDS011;21083;50.898;4.902;2023-02-13T00:52:06;83.47;;;30.88;;
20653;SDS011;21083;50.898;4.902;2023-02-13T00:54:34;91.38;;;33.03;;
20653;SDS011;21083;50.898;4.902;2023-02-13T00:57:01;80.78;;;30.65;;
20653;SDS011;21083;50.898;4.902;2023-02-13T00:59:29;79.35;;;32.78;;
20653;SDS011;21083;50.898;4.902;2023-02-13T01:01:56;82.10;;;31.00;;
20653;SDS011;21083;50.898;4.902;2023-02-13T01:04:22;80.93;;;32.05;;
20653;SDS011;21083;50.898;4.902;2023-02-13T01:06:49;79.78;;;30.42;;
20653;SDS011;21083;50.898;4.902;2023-02-13T01:09:16;77.05;;;30.33;;
20653;SDS011;21083;50.898;4.902;2023-02-13T01:11:45;77.78;;;30.23;;
20653;SDS011;21083;50.898;4.902;2023-02-13T01:14:12;79.25;;;30.40;;
20653;SDS011;21083;50.898;4.902;2023-02-13T01:16:39;84.32;;;33.00;;
20653;SDS011;21083;50.898;4.902;2023-02-13T01:19:06;83.10;;;30.85;;
20653;SDS011;21083;50.898;4.902;2023-02-13T01:21:33;79.15;;;30.83;;
20653;SDS011;21083;50.898;4.902;2023-02-13T01:24:01;78.60;;;32.08;;
20653;SDS011;21083;50.898;4.902;2023-02-13T01:26:29;82.38;;;31.33;;
20653;SDS011;21083;50.898;4.902;2023-02-13T01:28:58;77.47;;;31.20;;
20653;SDS011;21083;50.898;4.902;2023-02-13T01:31:25;73.53;;;29.10;;
20653;SDS011;21083;50.898;4.902;2023-02-13T01:33:54;73.97;;;29.58;;
20653;SDS011;21083;50.898;4.902;2023-02-13T01:36:22;78.55;;;30.33;;
20653;SDS011;21083;50.898;4.902;2023-02-13T01:38:51;81.55;;;31.33;;
20653;SDS011;21083;50.898;4.902;2023-02-13T01:41:19;76.63;;;29.02;;
20653;SDS011;21083;50.898;4.902;2023-02-13T01:43:48;74.32;;;28.70;;
20653;SDS011;21083;50.898;4.902;2023-02-13T01:46:21;77.53;;;30.08;;
20653;SDS011;21083;50.898;4.902;2023-02-13T01:48:51;73.43;;;29.30;;
20653;SDS011;21083;50.898;4.902;2023-02-13T01:51:23;73.13;;;28.45;;
20653;SDS011;21083;50.898;4.902;2023-02-13T01:53:53;72.20;;;27.23;;
20653;SDS011;21083;50.898;4.902;2023-02-13T01:56:24;75.00;;;28.95;;
20653;SDS011;21083;50.898;4.902;2023-02-13T01:58:58;79.68;;;29.95;;
20653;SDS011;21083;50.898;4.902;2023-02-13T02:01:29;80.30;;;25.58;;
20653;SDS011;21083;50.898;4.902;2023-02-13T02:03:58;55.08;;;24.17;;
20653;SDS011;21083;50.898;4.902;2023-02-13T02:06:32;53.40;;;23.27;;
20653;SDS011;21083;50.898;4.902;2023-02-13T02:09:02;64.07;;;25.05;;
20653;SDS011;21083;50.898;4.902;2023-02-13T02:11:35;74.63;;;28.08;;
20653;SDS011;21083;50.898;4.902;2023-02-13T02:14:06;83.72;;;27.85;;
20653;SDS011;21083;50.898;4.902;2023-02-13T02:16:35;68.53;;;26.45;;
20653;SDS011;21083;50.898;4.902;2023-02-13T02:19:03;103.90;;;29.60;;
20653;SDS011;21083;50.898;4.902;2023-02-13T02:21:56;80.95;;;29.95;;
20653;SDS011;21083;50.898;4.902;2023-02-13T02:24:45;96.72;;;29.48;;
20653;SDS011;21083;50.898;4.902;2023-02-13T02:27:35;97.03;;;28.67;;
20653;SDS011;21083;50.898;4.902;2023-02-13T02:30:49;159.45;;;26.88;;
20653;SDS011;21083;50.898;4.902;2023-02-13T02:33:45;100.53;;;21.83;;
20653;SDS011;21083;50.898;4.902;2023-02-13T02:36:23;49.95;;;19.73;;
20653;SDS011;21083;50.898;4.902;2023-02-13T02:39:05;125.90;;;21.33;;
20653;SDS011;21083;50.898;4.902;2023-02-13T02:41:41;78.47;;;19.08;;
20653;SDS011;21083;50.898;4.902;2023-02-13T02:44:30;85.85;;;18.00;;
20653;SDS011;21083;50.898;4.902;2023-02-13T02:47:04;38.30;;;15.60;;
20653;SDS011;21083;50.898;4.902;2023-02-13T02:49:59;71.32;;;16.48;;
20653;SDS011;21083;50.898;4.902;2023-02-13T02:52:39;75.63;;;17.38;;
20653;SDS011;21083;50.898;4.902;2023-02-13T02:55:16;112.75;;;17.35;;
20653;SDS011;21083;50.898;4.902;2023-02-13T02:57:54;116.50;;;16.65;;
20653;SDS011;21083;50.898;4.902;2023-02-13T03:00:45;76.00;;;15.30;;
20653;SDS011;21083;50.898;4.902;2023-02-13T03:03:32;69.10;;;15.38;;
20653;SDS011;21083;50.898;4.902;2023-02-13T03:06:19;53.28;;;14.48;;
20653;SDS011;21083;50.898;4.902;2023-02-13T03:08:52;54.78;;;14.98;;
20653;SDS011;21083;50.898;4.902;2023-02-13T03:11:38;40.85;;;14.35;;
20653;SDS011;21083;50.898;4.902;2023-02-13T03:14:27;51.00;;;15.52;;
20653;SDS011;21083;50.898;4.902;2023-02-13T03:16:55;42.05;;;14.57;;
20653;SDS011;21083;50.898;4.902;2023-02-13T03:19:48;53.33;;;15.32;;
20653;SDS011;21083;50.898;4.902;2023-02-13T03:22:46;45.20;;;13.93;;
20653;SDS011;21083;50.898;4.902;2023-02-13T03:25:27;41.30;;;14.00;;
20653;SDS011;21083;50.898;4.902;2023-02-13T03:27:59;36.70;;;12.73;;
20653;SDS011;21083;50.898;4.902;2023-02-13T03:30:54;26.05;;;13.02;;
20653;SDS011;21083;50.898;4.902;2023-02-13T03:33:33;33.33;;;13.32;;
20653;SDS011;21083;50.898;4.902;2023-02-13T03:36:13;30.70;;;13.35;;
20653;SDS011;21083;50.898;4.902;2023-02-13T03:39:09;28.00;;;12.20;;
20653;SDS011;21083;50.898;4.902;2023-02-13T03:41:40;33.45;;;12.93;;
20653;SDS011;21083;50.898;4.902;2023-02-13T03:44:12;27.65;;;13.48;;
20653;SDS011;21083;50.898;4.902;2023-02-13T03:46:43;26.30;;;13.30;;
20653;SDS011;21083;50.898;4.902;2023-02-13T03:49:16;24.60;;;12.88;;
20653;SDS011;21083;50.898;4.902;2023-02-13T03:52:05;25.35;;;12.93;;
20653;SDS011;21083;50.898;4.902;2023-02-13T03:54:38;25.15;;;12.40;;
20653;SDS011;21083;50.898;4.902;2023-02-13T03:57:27;28.40;;;12.32;;
20653;SDS011;21083;50.898;4.902;2023-02-13T04:02:46;28.20;;;13.07;;
20653;SDS011;21083;50.898;4.902;2023-02-13T04:05:20;26.65;;;13.05;;
20653;SDS011;21083;50.898;4.902;2023-02-13T04:07:49;26.27;;;12.43;;
20653;SDS011;21083;50.898;4.902;2023-02-13T04:10:18;27.38;;;11.98;;
20653;SDS011;21083;50.898;4.902;2023-02-13T04:12:49;33.08;;;13.38;;
20653;SDS011;21083;50.898;4.902;2023-02-13T04:15:21;37.03;;;12.45;;
20653;SDS011;21083;50.898;4.902;2023-02-13T04:17:54;39.60;;;13.43;;
20653;SDS011;21083;50.898;4.902;2023-02-13T04:20:27;43.67;;;11.88;;
20653;SDS011;21083;50.898;4.902;2023-02-13T04:22:56;46.85;;;12.65;;
20653;SDS011;21083;50.898;4.902;2023-02-13T04:25:30;48.00;;;12.07;;
20653;SDS011;21083;50.898;4.902;2023-02-13T04:27:57;27.33;;;11.50;;
20653;SDS011;21083;50.898;4.902;2023-02-13T04:30:24;23.70;;;11.60;;
20653;SDS011;21083;50.898;4.902;2023-02-13T04:32:52;27.90;;;10.63;;
20653;SDS011;21083;50.898;4.902;2023-02-13T04:35:19;29.00;;;11.32;;
20653;SDS011;21083;50.898;4.902;2023-02-13T04:37:47;19.38;;;11.02;;
20653;SDS011;21083;50.898;4.902;2023-02-13T04:40:14;20.98;;;10.25;;
20653;SDS011;21083;50.898;4.902;2023-02-13T04:42:42;21.42;;;10.52;;
20653;SDS011;21083;50.898;4.902;2023-02-13T04:45:09;21.10;;;10.32;;
20653;SDS011;21083;50.898;4.902;2023-02-13T04:47:36;24.65;;;12.50;;
20653;SDS011;21083;50.898;4.902;2023-02-13T04:50:03;21.85;;;11.15;;
20653;SDS011;21083;50.898;4.902;2023-02-13T04:52:30;21.08;;;11.48;;
20653;SDS011;21083;50.898;4.902;2023-02-13T04:54:57;21.38;;;11.07;;
20653;SDS011;21083;50.898;4.902;2023-02-13T04:57:25;20.83;;;11.48;;
20653;SDS011;21083;50.898;4.902;2023-02-13T04:59:53;22.13;;;11.80;;
20653;SDS011;21083;50.898;4.902;2023-02-13T05:02:20;21.90;;;11.25;;
20653;SDS011;21083;50.898;4.902;2023-02-13T05:04:47;21.42;;;11.43;;
20653;SDS011;21083;50.898;4.902;2023-02-13T05:07:14;24.23;;;12.02;;
20653;SDS011;21083;50.898;4.902;2023-02-13T05:09:41;22.23;;;12.20;;
20653;SDS011;21083;50.898;4.902;2023-02-13T05:12:08;25.98;;;12.57;;
20653;SDS011;21083;50.898;4.902;2023-02-13T05:14:34;23.15;;;12.10;;
20653;SDS011;21083;50.898;4.902;2023-02-13T05:17:04;26.05;;;13.32;;
20653;SDS011;21083;50.898;4.902;2023-02-13T05:19:32;29.20;;;13.88;;
20653;SDS011;21083;50.898;4.902;2023-02-13T05:21:58;26.30;;;13.80;;
20653;SDS011;21083;50.898;4.902;2023-02-13T05:24:43;31.08;;;14.68;;
20653;SDS011;21083;50.898;4.902;2023-02-13T05:27:10;34.17;;;15.77;;
20653;SDS011;21083;50.898;4.902;2023-02-13T05:29:36;37.42;;;17.20;;
20653;SDS011;21083;50.898;4.902;2023-02-13T05:32:04;31.77;;;14.98;;
20653;SDS011;21083;50.898;4.902;2023-02-13T05:34:31;33.85;;;14.60;;
20653;SDS011;21083;50.898;4.902;2023-02-13T05:36:57;32.05;;;14.95;;
20653;SDS011;21083;50.898;4.902;2023-02-13T05:39:25;34.83;;;16.15;;
20653;SDS011;21083;50.898;4.902;2023-02-13T05:41:51;35.90;;;14.85;;
20653;SDS011;21083;50.898;4.902;2023-02-13T05:44:18;30.48;;;15.80;;
20653;SDS011;21083;50.898;4.902;2023-02-13T05:46:45;28.23;;;13.20;;
20653;SDS011;21083;50.898;4.902;2023-02-13T05:49:14;26.33;;;13.15;;
20653;SDS011;21083;50.898;4.902;2023-02-13T05:51:41;27.42;;;13.35;;
20653;SDS011;21083;50.898;4.902;2023-02-13T05:54:10;31.33;;;13.70;;
20653;SDS011;21083;50.898;4.902;2023-02-13T05:56:37;36.38;;;16.27;;
20653;SDS011;21083;50.898;4.902;2023-02-13T05:59:04;38.08;;;15.73;;
20653;SDS011;21083;50.898;4.902;2023-02-13T06:01:31;30.33;;;14.35;;
20653;SDS011;21083;50.898;4.902;2023-02-13T06:03:58;33.85;;;14.60;;
20653;SDS011;21083;50.898;4.902;2023-02-13T06:06:26;31.38;;;14.02;;
20653;SDS011;21083;50.898;4.902;2023-02-13T06:08:53;31.45;;;15.02;;
20653;SDS011;21083;50.898;4.902;2023-02-13T06:11:20;33.85;;;15.68;;
20653;SDS011;21083;50.898;4.902;2023-02-13T06:13:47;32.30;;;14.40;;
20653;SDS011;21083;50.898;4.902;2023-02-13T06:16:14;34.30;;;14.77;;
20653;SDS011;21083;50.898;4.902;2023-02-13T06:18:41;30.20;;;14.07;;
20653;SDS011;21083;50.898;4.902;2023-02-13T06:21:07;33.92;;;14.98;;
20653;SDS011;21083;50.898;4.902;2023-02-13T06:23:36;33.75;;;16.40;;
20653;SDS011;21083;50.898;4.902;2023-02-13T06:26:03;34.08;;;15.60;;
20653;SDS011;21083;50.898;4.902;2023-02-13T06:28:31;33.78;;;14.25;;
20653;SDS011;21083;50.898;4.902;2023-02-13T06:30:59;33.92;;;13.63;;
20653;SDS011;21083;50.898;4.902;2023-02-13T06:33:26;28.60;;;13.68;;
20653;SDS011;21083;50.898;4.902;2023-02-13T06:35:53;36.20;;;15.68;;
20653;SDS011;21083;50.898;4.902;2023-02-13T06:38:20;34.83;;;14.02;;
20653;SDS011;21083;50.898;4.902;2023-02-13T06:40:48;36.63;;;14.63;;
20653;SDS011;21083;50.898;4.902;2023-02-13T06:43:16;29.90;;;14.45;;
20653;SDS011;21083;50.898;4.902;2023-02-13T06:45:43;33.28;;;14.45;;
20653;SDS011;21083;50.898;4.902;2023-02-13T06:48:11;37.13;;;15.55;;
20653;SDS011;21083;50.898;4.902;2023-02-13T06:50:38;35.70;;;15.85;;
20653;SDS011;21083;50.898;4.902;2023-02-13T06:53:05;33.38;;;15.43;;
20653;SDS011;21083;50.898;4.902;2023-02-13T06:55:32;38.92;;;15.88;;
20653;SDS011;21083;50.898;4.902;2023-02-13T06:58:00;33.70;;;14.38;;
20653;SDS011;21083;50.898;4.902;2023-02-13T07:00:27;32.10;;;15.02;;
20653;SDS011;21083;50.898;4.902;2023-02-13T07:02:54;38.03;;;14.90;;
20653;SDS011;21083;50.898;4.902;2023-02-13T07:05:27;32.42;;;14.68;;
20653;SDS011;21083;50.898;4.902;2023-02-13T07:07:54;30.85;;;14.80;;
20653;SDS011;21083;50.898;4.902;2023-02-13T07:10:21;27.63;;;13.13;;
20653;SDS011;21083;50.898;4.902;2023-02-13T07:12:47;31.90;;;14.93;;
20653;SDS011;21083;50.898;4.902;2023-02-13T07:15:16;32.55;;;14.77;;
20653;SDS011;21083;50.898;4.902;2023-02-13T07:17:43;35.22;;;14.85;;
20653;SDS011;21083;50.898;4.902;2023-02-13T07:20:10;34.20;;;13.57;;
20653;SDS011;21083;50.898;4.902;2023-02-13T07:22:37;28.50;;;13.98;;
20653;SDS011;21083;50.898;4.902;2023-02-13T07:25:04;31.63;;;14.25;;
20653;SDS011;21083;50.898;4.902;2023-02-13T07:27:32;34.67;;;15.10;;
20653;SDS011;21083;50.898;4.902;2023-02-13T07:29:59;33.78;;;14.30;;
20653;SDS011;21083;50.898;4.902;2023-02-13T07:32:27;29.90;;;13.93;;
20653;SDS011;21083;50.898;4.902;2023-02-13T07:34:54;36.05;;;14.60;;
20653;SDS011;21083;50.898;4.902;2023-02-13T07:37:21;31.90;;;14.50;;
20653;SDS011;21083;50.898;4.902;2023-02-13T07:39:47;31.20;;;15.23;;
20653;SDS011;21083;50.898;4.902;2023-02-13T07:42:14;31.73;;;14.75;;
20653;SDS011;21083;50.898;4.902;2023-02-13T07:44:41;35.85;;;14.07;;
20653;SDS011;21083;50.898;4.902;2023-02-13T07:47:08;28.63;;;14.70;;
20653;SDS011;21083;50.898;4.902;2023-02-13T07:49:36;33.17;;;14.30;;
20653;SDS011;21083;50.898;4.902;2023-02-13T07:52:04;31.70;;;14.27;;
20653;SDS011;21083;50.898;4.902;2023-02-13T07:54:31;30.65;;;14.25;;
20653;SDS011;21083;50.898;4.902;2023-02-13T07:56:58;35.03;;;15.15;;
20653;SDS011;21083;50.898;4.902;2023-02-13T07:59:25;33.65;;;15.15;;
20653;SDS011;21083;50.898;4.902;2023-02-13T08:01:52;32.15;;;14.98;;
20653;SDS011;21083;50.898;4.902;2023-02-13T08:04:18;28.08;;;12.90;;
20653;SDS011;21083;50.898;4.902;2023-02-13T08:06:47;29.80;;;13.57;;
20653;SDS011;21083;50.898;4.902;2023-02-13T08:09:16;32.20;;;14.55;;
20653;SDS011;21083;50.898;4.902;2023-02-13T08:12:02;34.97;;;14.25;;
20653;SDS011;21083;50.898;4.902;2023-02-13T08:14:31;31.60;;;13.90;;
20653;SDS011;21083;50.898;4.902;2023-02-13T08:16:58;33.65;;;14.88;;
20653;SDS011;21083;50.898;4.902;2023-02-13T08:19:26;32.30;;;14.50;;
20653;SDS011;21083;50.898;4.902;2023-02-13T08:21:54;32.97;;;15.63;;
20653;SDS011;21083;50.898;4.902;2023-02-13T08:24:22;33.45;;;15.10;;
20653;SDS011;21083;50.898;4.902;2023-02-13T08:26:49;35.15;;;15.50;;
20653;SDS011;21083;50.898;4.902;2023-02-13T08:29:16;33.28;;;14.77;;
20653;SDS011;21083;50.898;4.902;2023-02-13T08:31:43;32.78;;;14.50;;
20653;SDS011;21083;50.898;4.902;2023-02-13T08:34:10;33.53;;;16.60;;
20653;SDS011;21083;50.898;4.902;2023-02-13T08:36:37;34.10;;;15.32;;
20653;SDS011;21083;50.898;4.902;2023-02-13T08:39:05;35.30;;;15.77;;
20653;SDS011;21083;50.898;4.902;2023-02-13T08:41:32;38.38;;;15.77;;
20653;SDS011;21083;50.898;4.902;2023-02-13T08:43:59;35.92;;;16.58;;
20653;SDS011;21083;50.898;4.902;2023-02-13T08:46:26;40.83;;;16.05;;
20653;SDS011;21083;50.898;4.902;2023-02-13T08:48:53;36.17;;;15.63;;
20653;SDS011;21083;50.898;4.902;2023-02-13T08:51:20;37.50;;;15.65;;
20653;SDS011;21083;50.898;4.902;2023-02-13T08:53:47;40.55;;;15.75;;
20653;SDS011;21083;50.898;4.902;2023-02-13T08:56:15;39.83;;;16.90;;
20653;SDS011;21083;50.898;4.902;2023-02-13T08:58:42;36.92;;;16.38;;
20653;SDS011;21083;50.898;4.902;2023-02-13T09:01:09;36.35;;;16.27;;
20653;SDS011;21083;50.898;4.902;2023-02-13T09:03:36;36.90;;;15.57;;
20653;SDS011;21083;50.898;4.902;2023-02-13T09:06:03;36.85;;;15.75;;
20653;SDS011;21083;50.898;4.902;2023-02-13T09:08:30;37.08;;;15.57;;
20653;SDS011;21083;50.898;4.902;2023-02-13T09:10:58;36.83;;;15.48;;
20653;SDS011;21083;50.898;4.902;2023-02-13T09:13:27;36.53;;;16.00;;
20653;SDS011;21083;50.898;4.902;2023-02-13T09:15:57;39.40;;;16.42;;
20653;SDS011;21083;50.898;4.902;2023-02-13T09:18:25;33.97;;;15.48;;
20653;SDS011;21083;50.898;4.902;2023-02-13T09:20:56;35.13;;;14.48;;
20653;SDS011;21083;50.898;4.902;2023-02-13T09:23:24;36.42;;;16.13;;
20653;SDS011;21083;50.898;4.902;2023-02-13T09:25:51;34.28;;;14.60;;
20653;SDS011;21083;50.898;4.902;2023-02-13T09:28:18;35.13;;;15.98;;
20653;SDS011;21083;50.898;4.902;2023-02-13T09:30:46;34.03;;;16.48;;
20653;SDS011;21083;50.898;4.902;2023-02-13T09:33:14;34.05;;;15.43;;
20653;SDS011;21083;50.898;4.902;2023-02-13T09:35:41;33.42;;;15.18;;
20653;SDS011;21083;50.898;4.902;2023-02-13T09:38:08;34.92;;;15.98;;
20653;SDS011;21083;50.898;4.902;2023-02-13T09:40:42;31.65;;;16.40;;
20653;SDS011;21083;50.898;4.902;2023-02-13T09:43:15;32.17;;;15.88;;
20653;SDS011;21083;50.898;4.902;2023-02-13T09:45:46;33.22;;;15.57;;
20653;SDS011;21083;50.898;4.902;2023-02-13T09:48:17;33.15;;;15.30;;
20653;SDS011;21083;50.898;4.902;2023-02-13T09:50:49;31.40;;;15.25;;
20653;SDS011;21083;50.898;4.902;2023-02-13T09:53:19;36.25;;;15.30;;
20653;SDS011;21083;50.898;4.902;2023-02-13T09:55:49;32.22;;;14.57;;
20653;SDS011;21083;50.898;4.902;2023-02-13T09:58:28;32.00;;;15.10;;
20653;SDS011;21083;50.898;4.902;2023-02-13T10:01:12;32.05;;;15.10;;
20653;SDS011;21083;50.898;4.902;2023-02-13T10:03:44;36.97;;;15.35;;
20653;SDS011;21083;50.898;4.902;2023-02-13T10:06:18;31.52;;;15.00;;
20653;SDS011;21083;50.898;4.902;2023-02-13T10:08:58;29.80;;;14.73;;
20653;SDS011;21083;50.898;4.902;2023-02-13T10:11:43;29.42;;;13.95;;
20653;SDS011;21083;50.898;4.902;2023-02-13T10:14:27;26.38;;;12.68;;
20653;SDS011;21083;50.898;4.902;2023-02-13T10:17:03;26.50;;;13.70;;
20653;SDS011;21083;50.898;4.902;2023-02-13T10:19:34;23.90;;;11.93;;
20653;SDS011;21083;50.898;4.902;2023-02-13T10:22:09;26.10;;;12.82;;
20653;SDS011;21083;50.898;4.902;2023-02-13T10:24:40;29.73;;;14.23;;
20653;SDS011;21083;50.898;4.902;2023-02-13T10:27:14;27.70;;;13.55;;
20653;SDS011;21083;50.898;4.902;2023-02-13T10:29:46;26.35;;;12.98;;
20653;SDS011;21083;50.898;4.902;2023-02-13T10:32:45;26.50;;;13.88;;
20653;SDS011;21083;50.898;4.902;2023-02-13T10:35:35;27.63;;;14.55;;
20653;SDS011;21083;50.898;4.902;2023-02-13T10:38:10;27.38;;;13.00;;
20653;SDS011;21083;50.898;4.902;2023-02-13T10:40:42;25.27;;;12.88;;
20653;SDS011;21083;50.898;4.902;2023-02-13T10:43:31;25.02;;;12.48;;
20653;SDS011;21083;50.898;4.902;2023-02-13T10:46:07;24.40;;;12.32;;
20653;SDS011;21083;50.898;4.902;2023-02-13T10:49:02;23.58;;;11.50;;
20653;SDS011;21083;50.898;4.902;2023-02-13T10:51:44;21.63;;;10.77;;
20653;SDS011;21083;50.898;4.902;2023-02-13T10:54:26;24.23;;;11.25;;
20653;SDS011;21083;50.898;4.902;2023-02-13T10:57:03;23.02;;;12.18;;
20653;SDS011;21083;50.898;4.902;2023-02-13T10:59:43;23.63;;;11.02;;
20653;SDS011;21083;50.898;4.902;2023-02-13T11:02:21;19.38;;;8.93;;
20653;SDS011;21083;50.898;4.902;2023-02-13T11:04:52;17.35;;;8.68;;
20653;SDS011;21083;50.898;4.902;2023-02-13T11:07:23;18.75;;;8.85;;
20653;SDS011;21083;50.898;4.902;2023-02-13T11:09:52;19.02;;;9.32;;
20653;SDS011;21083;50.898;4.902;2023-02-13T11:12:25;18.75;;;9.80;;
20653;SDS011;21083;50.898;4.902;2023-02-13T11:14:54;18.38;;;9.68;;
20653;SDS011;21083;50.898;4.902;2023-02-13T11:17:22;24.13;;;10.38;;
20653;SDS011;21083;50.898;4.902;2023-02-13T11:19:53;21.20;;;9.57;;
20653;SDS011;21083;50.898;4.902;2023-02-13T11:22:26;19.48;;;9.57;;
20653;SDS011;21083;50.898;4.902;2023-02-13T11:24:57;21.88;;;9.63;;
20653;SDS011;21083;50.898;4.902;2023-02-13T11:27:27;18.52;;;9.55;;
20653;SDS011;21083;50.898;4.902;2023-02-13T11:29:58;18.00;;;9.50;;
20653;SDS011;21083;50.898;4.902;2023-02-13T11:32:27;20.48;;;10.00;;
20653;SDS011;21083;50.898;4.902;2023-02-13T11:34:56;19.48;;;9.63;;
20653;SDS011;21083;50.898;4.902;2023-02-13T11:37:31;18.77;;;9.27;;
20653;SDS011;21083;50.898;4.902;2023-02-13T11:39:58;20.48;;;9.75;;
20653;SDS011;21083;50.898;4.902;2023-02-13T11:42:41;19.42;;;9.50;;
20653;SDS011;21083;50.898;4.902;2023-02-13T11:45:19;18.08;;;9.73;;
20653;SDS011;21083;50.898;4.902;2023-02-13T11:47:47;19.70;;;10.05;;
20653;SDS011;21083;50.898;4.902;2023-02-13T11:50:20;19.75;;;10.65;;
20653;SDS011;21083;50.898;4.902;2023-02-13T11:52:54;18.33;;;9.93;;
20653;SDS011;21083;50.898;4.902;2023-02-13T11:55:24;25.80;;;11.50;;
20653;SDS011;21083;50.898;4.902;2023-02-13T11:57:55;18.90;;;9.95;;
20653;SDS011;21083;50.898;4.902;2023-02-13T12:00:27;22.95;;;11.32;;
20653;SDS011;21083;50.898;4.902;2023-02-13T12:03:01;17.83;;;9.32;;
20653;SDS011;21083;50.898;4.902;2023-02-13T12:06:00;18.58;;;9.52;;
20653;SDS011;21083;50.898;4.902;2023-02-13T12:08:28;17.48;;;9.18;;
20653;SDS011;21083;50.898;4.902;2023-02-13T12:10:56;18.23;;;10.00;;
20653;SDS011;21083;50.898;4.902;2023-02-13T12:13:24;18.42;;;9.68;;
20653;SDS011;21083;50.898;4.902;2023-02-13T12:15:57;17.50;;;9.73;;
20653;SDS011;21083;50.898;4.902;2023-02-13T12:18:28;17.80;;;8.88;;
20653;SDS011;21083;50.898;4.902;2023-02-13T12:21:02;17.98;;;9.20;;
20653;SDS011;21083;50.898;4.902;2023-02-13T12:23:39;17.38;;;9.68;;
20653;SDS011;21083;50.898;4.902;2023-02-13T12:26:21;19.75;;;10.13;;
20653;SDS011;21083;50.898;4.902;2023-02-13T12:29:02;18.58;;;10.48;;
20653;SDS011;21083;50.898;4.902;2023-02-13T12:31:53;16.75;;;8.75;;
20653;SDS011;21083;50.898;4.902;2023-02-13T12:34:35;20.42;;;9.07;;
20653;SDS011;21083;50.898;4.902;2023-02-13T12:37:39;21.38;;;8.80;;
20653;SDS011;21083;50.898;4.902;2023-02-13T12:40:25;14.98;;;8.07;;
20653;SDS011;21083;50.898;4.902;2023-02-13T12:43:08;17.92;;;8.48;;
20653;SDS011;21083;50.898;4.902;2023-02-13T12:46:00;17.55;;;9.32;;
20653;SDS011;21083;50.898;4.902;2023-02-13T12:48:33;16.20;;;8.93;;
20653;SDS011;21083;50.898;4.902;2023-02-13T12:54:01;16.92;;;9.57;;
20653;SDS011;21083;50.898;4.902;2023-02-13T12:56:44;19.50;;;9.70;;
20653;SDS011;21083;50.898;4.902;2023-02-13T12:59:21;16.35;;;8.93;;
20653;SDS011;21083;50.898;4.902;2023-02-13T13:02:09;17.02;;;9.50;;
20653;SDS011;21083;50.898;4.902;2023-02-13T13:04:54;23.92;;;11.40;;
20653;SDS011;21083;50.898;4.902;2023-02-13T13:07:45;20.85;;;10.90;;
20653;SDS011;21083;50.898;4.902;2023-02-13T13:10:37;18.77;;;10.38;;
20653;SDS011;21083;50.898;4.902;2023-02-13T13:13:13;17.33;;;10.10;;
20653;SDS011;21083;50.898;4.902;2023-02-13T13:15:57;15.93;;;9.00;;
20653;SDS011;21083;50.898;4.902;2023-02-13T13:18:37;16.27;;;8.52;;
20653;SDS011;21083;50.898;4.902;2023-02-13T13:21:16;17.65;;;9.55;;
20653;SDS011;21083;50.898;4.902;2023-02-13T13:23:53;15.70;;;8.63;;
20653;SDS011;21083;50.898;4.902;2023-02-13T13:26:29;15.23;;;8.65;;
20653;SDS011;21083;50.898;4.902;2023-02-13T13:29:03;15.20;;;8.60;;
20653;SDS011;21083;50.898;4.902;2023-02-13T13:31:35;18.60;;;9.55;;
20653;SDS011;21083;50.898;4.902;2023-02-13T13:34:04;15.65;;;9.20;;
20653;SDS011;21083;50.898;4.902;2023-02-13T13:36:37;17.45;;;9.30;;
20653;SDS011;21083;50.898;4.902;2023-02-13T13:39:13;18.65;;;9.90;;
20653;SDS011;21083;50.898;4.902;2023-02-13T13:41:51;15.48;;;8.82;;
20653;SDS011;21083;50.898;4.902;2023-02-13T13:44:39;14.63;;;8.30;;
20653;SDS011;21083;50.898;4.902;2023-02-13T13:47:16;15.10;;;8.68;;
20653;SDS011;21083;50.898;4.902;2023-02-13T13:49:51;15.13;;;8.10;;
20653;SDS011;21083;50.898;4.902;2023-02-13T13:52:21;15.30;;;8.13;;
20653;SDS011;21083;50.898;4.902;2023-02-13T13:54:50;14.98;;;8.70;;
20653;SDS011;21083;50.898;4.902;2023-02-13T13:57:21;15.25;;;8.45;;
20653;SDS011;21083;50.898;4.902;2023-02-13T13:59:59;16.00;;;9.05;;
20653;SDS011;21083;50.898;4.902;2023-02-13T14:02:51;13.77;;;8.40;;
20653;SDS011;21083;50.898;4.902;2023-02-13T14:05:57;16.17;;;8.73;;
20653;SDS011;21083;50.898;4.902;2023-02-13T14:11:34;16.02;;;7.93;;
20653;SDS011;21083;50.898;4.902;2023-02-13T14:20:21;12.45;;;7.35;;
20653;SDS011;21083;50.898;4.902;2023-02-13T14:32:06;14.00;;;7.95;;
20653;SDS011;21083;50.898;4.902;2023-02-13T14:34:49;16.50;;;8.27;;
20653;SDS011;21083;50.898;4.902;2023-02-13T14:37:21;14.57;;;7.60;;
20653;SDS011;21083;50.898;4.902;2023-02-13T14:46:23;13.50;;;7.90;;
20653;SDS011;21083;50.898;4.902;2023-02-13T14:48:59;14.45;;;7.88;;
20653;SDS011;21083;50.898;4.902;2023-02-13T14:51:30;16.63;;;7.80;;
20653;SDS011;21083;50.898;4.902;2023-02-13T14:54:06;14.13;;;7.57;;
20653;SDS011;21083;50.898;4.902;2023-02-13T14:56:40;13.10;;;7.57;;
20653;SDS011;21083;50.898;4.902;2023-02-13T14:59:12;14.95;;;8.82;;
20653;SDS011;21083;50.898;4.902;2023-02-13T15:01:44;16.35;;;9.63;;
20653;SDS011;21083;50.898;4.902;2023-02-13T15:04:14;15.93;;;9.00;;
20653;SDS011;21083;50.898;4.902;2023-02-13T15:06:44;14.30;;;8.25;;
20653;SDS011;21083;50.898;4.902;2023-02-13T15:09:18;19.38;;;8.52;;
20653;SDS011;21083;50.898;4.902;2023-02-13T15:11:49;15.57;;;7.88;;
20653;SDS011;21083;50.898;4.902;2023-02-13T15:14:17;13.70;;;7.97;;
20653;SDS011;21083;50.898;4.902;2023-02-13T15:16:47;17.92;;;10.13;;
20653;SDS011;21083;50.898;4.902;2023-02-13T15:19:18;15.30;;;8.25;;
20653;SDS011;21083;50.898;4.902;2023-02-13T15:21:51;13.45;;;7.43;;
20653;SDS011;21083;50.898;4.902;2023-02-13T15:24:21;12.27;;;7.40;;